Time;durP1;ratioP1;P1;durP2;ratioP2;P2;SDS_P1;SDS_P2;PMS_P1;PMS_P2;Temp;Humidity;BMP_temperature;BMP_pressure;BME280_temperature;BME280_humidity;BME280_pressure;Samples;Min_cycle;Max_cycle;Signal;HPM_P1;HPM_P2
2022/04/26 03:36:37;;;;;;;39.72;22.65;;;;;;;;;;5031348;28;20041;-70
2022/04/26 03:39:04;;;;;;;39.75;22.17;;;;;;;;;;5030847;28;20107;-71
2022/04/26 03:41:31;;;;;;;38.22;22.88;;;;;;;;;;5030363;28;20055;-71
2022/04/26 03:43:58;;;;;;;35.03;21.05;;;;;;;;;;5032478;28;20033;-71
2022/04/26 03:46:24;;;;;;;35.83;23.92;;;;;;;;;;5031039;28;20030;-69
2022/04/26 03:48:50;;;;;;;31.75;20.02;;;;;;;;;;5030004;28;20440;-69
2022/04/26 03:51:16;;;;;;;33.22;20.17;;;;;;;;;;5030805;28;20468;-68
2022/04/26 03:53:42;;;;;;;28.08;18.35;;;;;;;;;;5031006;28;20399;-69
2022/04/26 03:56:08;;;;;;;40.00;21.25;;;;;;;;;;5031137;28;20032;-69
2022/04/26 03:58:34;;;;;;;31.67;19.42;;;;;;;;;;5031308;28;20025;-69
2022/04/26 04:01:00;;;;;;;29.23;18.38;;;;;;;;;;5030876;28;20026;-69
2022/04/26 04:03:27;;;;;;;34.08;20.33;;;;;;;;;;5030991;28;20104;-69
2022/04/26 04:05:53;;;;;;;37.25;20.63;;;;;;;;;;5031674;28;20423;-70
2022/04/26 04:08:19;;;;;;;39.03;19.75;;;;;;;;;;5029144;28;20296;-70
2022/04/26 04:10:45;;;;;;;29.92;18.35;;;;;;;;;;5031896;28;20032;-69
2022/04/26 04:13:11;;;;;;;29.15;18.33;;;;;;;;;;5032177;28;20017;-69
2022/04/26 04:15:37;;;;;;;36.85;19.20;;;;;;;;;;5031748;28;20101;-69
2022/04/26 04:19:17;;;;;;;28.42;17.17;;;;;;;;;;5029364;28;20025;-69
2022/04/26 04:20:50;;;;;;;27.67;17.33;;;;;;;;;;5031405;28;20029;-71
2022/04/26 04:23:16;;;;;;;31.83;17.48;;;;;;;;;;5030307;28;20033;-71
2022/04/26 04:25:42;;;;;;;26.00;17.23;;;;;;;;;;5031566;28;20181;-70
2022/04/26 04:28:08;;;;;;;21.85;13.65;;;;;;;;;;5030604;28;20071;-69
2022/04/26 04:30:34;;;;;;;19.13;12.52;;;;;;;;;;5029975;28;20025;-71
2022/04/26 04:33:00;;;;;;;21.02;14.25;;;;;;;;;;5029907;28;20018;-71
2022/04/26 04:35:25;;;;;;;20.17;15.05;;;;;;;;;;5030251;28;20020;-71
2022/04/26 04:37:52;;;;;;;21.38;13.75;;;;;;;;;;5030747;28;20053;-70
2022/04/26 04:40:18;;;;;;;16.30;11.38;;;;;;;;;;5031424;28;20029;-70
2022/04/26 04:42:45;;;;;;;14.85;10.32;;;;;;;;;;5031112;28;20056;-71
2022/04/26 04:45:11;;;;;;;16.30;9.35;;;;;;;;;;5030052;28;20394;-70
2022/04/26 04:47:37;;;;;;;12.80;8.55;;;;;;;;;;5029020;28;20030;-70
2022/04/26 04:50:03;;;;;;;14.63;8.68;;;;;;;;;;5030010;28;20052;-71
2022/04/26 04:52:29;;;;;;;12.50;8.35;;;;;;;;;;5029789;28;20079;-70
2022/04/26 04:54:55;;;;;;;11.20;8.30;;;;;;;;;;5029808;28;20029;-71
2022/04/26 04:57:21;;;;;;;12.52;7.75;;;;;;;;;;5028904;28;20021;-70
2022/04/26 04:59:48;;;;;;;10.20;7.32;;;;;;;;;;5030919;28;20060;-68
2022/04/26 05:02:14;;;;;;;8.75;7.00;;;;;;;;;;5031154;28;20025;-69
2022/04/26 05:04:42;;;;;;;12.48;7.68;;;;;;;;;;5029200;28;20026;-71
2022/04/26 05:07:08;;;;;;;28.27;20.58;;;;;;;;;;5027991;28;20129;-70
2022/04/26 05:09:34;;;;;;;12.13;8.50;;;;;;;;;;5029242;28;20025;-71
2022/04/26 05:12:00;;;;;;;11.85;6.90;;;;;;;;;;5030772;28;20104;-72
2022/04/26 05:14:26;;;;;;;13.25;8.90;;;;;;;;;;5029196;28;20029;-72
2022/04/26 05:16:52;;;;;;;12.60;7.35;;;;;;;;;;5030459;28;20083;-73
2022/04/26 05:19:18;;;;;;;10.48;6.97;;;;;;;;;;5027133;28;20399;-72
2022/04/26 05:21:44;;;;;;;8.50;6.10;;;;;;;;;;5034041;28;20108;-71
2022/04/26 05:26:55;;;;;;;7.45;5.85;;;;;;;;;;5017176;28;20399;-74
2022/04/26 05:29:21;;;;;;;8.20;6.28;;;;;;;;;;5030967;28;20021;-73
2022/04/26 05:31:47;;;;;;;9.55;6.57;;;;;;;;;;5034412;28;20048;-73
2022/04/26 05:34:13;;;;;;;11.10;7.05;;;;;;;;;;5033453;28;20029;-72
2022/04/26 05:36:39;;;;;;;8.98;6.60;;;;;;;;;;5027339;28;20037;-72
2022/04/26 05:39:05;;;;;;;9.00;6.32;;;;;;;;;;5036988;28;20021;-71
2022/04/26 05:41:31;;;;;;;9.52;6.40;;;;;;;;;;5043487;28;20024;-71
2022/04/26 05:43:57;;;;;;;8.85;6.40;;;;;;;;;;5042433;28;20017;-72
2022/04/26 05:46:23;;;;;;;11.68;6.60;;;;;;;;;;5033044;28;20068;-72
2022/04/26 05:48:49;;;;;;;9.35;6.40;;;;;;;;;;5031507;28;20072;-72
2022/04/26 05:51:15;;;;;;;8.27;6.28;;;;;;;;;;5032548;28;20020;-72
2022/04/26 05:53:41;;;;;;;9.20;5.95;;;;;;;;;;5034465;28;20025;-72
2022/04/26 05:56:09;;;;;;;8.10;6.10;;;;;;;;;;5034165;28;20034;-71
2022/04/26 05:58:35;;;;;;;8.13;6.85;;;;;;;;;;5032601;28;20025;-73
2022/04/26 06:01:01;;;;;;;7.05;5.93;;;;;;;;;;5033981;28;20033;-73
2022/04/26 06:03:27;;;;;;;6.75;5.47;;;;;;;;;;5032846;28;20025;-75
2022/04/26 06:05:55;;;;;;;7.18;5.90;;;;;;;;;;5033452;28;20036;-75
2022/04/26 06:08:22;;;;;;;6.72;5.97;;;;;;;;;;5030793;28;20094;-75
2022/04/26 06:10:48;;;;;;;6.20;5.55;;;;;;;;;;5031131;28;20029;-75
2022/04/26 06:13:15;;;;;;;7.35;5.78;;;;;;;;;;5031764;28;20017;-75
2022/04/26 06:15:41;;;;;;;7.50;5.90;;;;;;;;;;5039122;28;20020;-73
2022/04/26 06:18:07;;;;;;;7.50;5.72;;;;;;;;;;5037568;28;20493;-74
2022/04/26 06:20:33;;;;;;;7.70;5.43;;;;;;;;;;5041276;28;20445;-74
2022/04/26 06:23:00;;;;;;;6.65;5.80;;;;;;;;;;5033854;28;20025;-75
2022/04/26 06:25:26;;;;;;;7.65;5.82;;;;;;;;;;5032108;28;20486;-71
2022/04/26 06:27:52;;;;;;;7.88;6.15;;;;;;;;;;5032317;28;20372;-70
2022/04/26 06:30:18;;;;;;;7.22;5.65;;;;;;;;;;5039955;28;20068;-71
2022/04/26 06:32:44;;;;;;;19.38;15.00;;;;;;;;;;5031144;28;20079;-73
2022/04/26 06:35:11;;;;;;;10.15;7.32;;;;;;;;;;5033236;28;20025;-72
2022/04/26 06:37:37;;;;;;;7.43;6.18;;;;;;;;;;5031981;28;20029;-72
2022/04/26 06:40:04;;;;;;;8.55;5.93;;;;;;;;;;5031450;28;20033;-72
2022/04/26 06:42:30;;;;;;;11.73;7.80;;;;;;;;;;5033021;28;20095;-72
2022/04/26 06:44:56;;;;;;;9.45;7.85;;;;;;;;;;5030711;28;20045;-72
2022/04/26 06:47:22;;;;;;;14.52;9.40;;;;;;;;;;5028758;28;20045;-72
2022/04/26 06:49:48;;;;;;;13.10;8.82;;;;;;;;;;5056816;22;20130;-74
2022/04/26 06:52:14;;;;;;;9.75;7.57;;;;;;;;;;5035603;28;20103;-79
2022/04/26 06:54:40;;;;;;;8.38;6.60;;;;;;;;;;5035355;28;20111;-76
2022/04/26 06:57:07;;;;;;;10.75;7.28;;;;;;;;;;5035254;28;20030;-76
2022/04/26 06:59:33;;;;;;;13.75;7.70;;;;;;;;;;5044153;28;20053;-77
2022/04/26 07:01:59;;;;;;;8.52;7.55;;;;;;;;;;5027666;28;20074;-76
2022/04/26 07:04:25;;;;;;;17.35;11.57;;;;;;;;;;5037572;28;20022;-76
2022/04/26 07:06:51;;;;;;;11.80;8.50;;;;;;;;;;5049708;28;20506;-77
2022/04/26 07:09:18;;;;;;;17.27;10.90;;;;;;;;;;5045074;28;20029;-78
2022/04/26 07:11:45;;;;;;;13.65;10.20;;;;;;;;;;5067989;28;20105;-80
2022/04/26 07:14:11;;;;;;;9.77;8.02;;;;;;;;;;5048601;28;20258;-79
2022/04/26 07:16:38;;;;;;;9.95;7.88;;;;;;;;;;5051145;28;20108;-80
2022/04/26 07:19:04;;;;;;;9.82;7.97;;;;;;;;;;5052470;28;20063;-81
2022/04/26 07:21:30;;;;;;;18.27;7.95;;;;;;;;;;5047448;28;20038;-78
2022/04/26 07:23:56;;;;;;;9.57;7.38;;;;;;;;;;5035427;28;20024;-79
2022/04/26 07:26:22;;;;;;;10.95;8.77;;;;;;;;;;5032187;28;20033;-75
2022/04/26 07:28:48;;;;;;;9.93;7.97;;;;;;;;;;5034213;28;20568;-74
2022/04/26 07:31:14;;;;;;;15.45;11.45;;;;;;;;;;5024205;28;20017;-79
2022/04/26 07:36:25;;;;;;;83.32;56.70;;;;;;;;;;5030826;28;20041;-77
2022/04/26 07:38:51;;;;;;;18.73;13.88;;;;;;;;;;5047685;28;20518;-77
2022/04/26 07:41:17;;;;;;;14.65;12.68;;;;;;;;;;5021438;28;20020;-77
2022/04/26 07:43:44;;;;;;;39.17;29.20;;;;;;;;;;5042599;28;20026;-76
2022/04/26 07:46:12;;;;;;;24.73;19.17;;;;;;;;;;5028237;28;20413;-77
2022/04/26 07:48:41;;;;;;;18.25;13.85;;;;;;;;;;5034512;28;20061;-77
2022/04/26 07:51:08;;;;;;;20.02;17.45;;;;;;;;;;5046845;28;20005;-76
2022/04/26 07:53:35;;;;;;;24.05;19.00;;;;;;;;;;5031572;28;20029;-77
2022/04/26 07:56:01;;;;;;;23.17;16.42;;;;;;;;;;5040841;28;20018;-77
2022/04/26 07:58:27;;;;;;;30.65;24.90;;;;;;;;;;5049858;28;20028;-75
2022/04/26 08:00:53;;;;;;;22.20;18.85;;;;;;;;;;5035855;28;20048;-80
2022/04/26 08:03:20;;;;;;;19.33;16.27;;;;;;;;;;5041123;28;20022;-75
2022/04/26 08:05:46;;;;;;;22.17;18.42;;;;;;;;;;5025128;28;20027;-75
2022/04/26 08:08:12;;;;;;;26.60;21.02;;;;;;;;;;5019712;28;20455;-78
2022/04/26 08:10:38;;;;;;;21.60;16.70;;;;;;;;;;5048367;28;20418;-73
2022/04/26 08:13:04;;;;;;;19.75;16.13;;;;;;;;;;5053753;28;20025;-78
2022/04/26 08:15:31;;;;;;;47.50;33.58;;;;;;;;;;5043401;28;20039;-77
2022/04/26 08:17:57;;;;;;;18.63;15.05;;;;;;;;;;5040091;28;20515;-77
2022/04/26 08:20:24;;;;;;;19.45;15.30;;;;;;;;;;5053302;28;20025;-77
2022/04/26 08:22:50;;;;;;;38.63;29.65;;;;;;;;;;5033551;28;20094;-76
2022/04/26 08:28:02;;;;;;;37.97;28.48;;;;;;;;;;5044000;28;20138;-78
2022/04/26 08:30:28;;;;;;;88.80;60.00;;;;;;;;;;5037272;28;20028;-78
2022/04/26 08:33:01;;;;;;;14.75;11.07;;;;;;;;;;5050842;28;20091;-79
2022/04/26 08:35:28;;;;;;;24.45;17.65;;;;;;;;;;5042571;28;20383;-79
2022/04/26 08:37:54;;;;;;;13.05;7.93;;;;;;;;;;5022920;28;20029;-75
2022/04/26 08:40:20;;;;;;;24.23;15.10;;;;;;;;;;5046429;28;20029;-76
2022/04/26 08:42:47;;;;;;;10.90;9.13;;;;;;;;;;5035057;28;20025;-78
2022/04/26 08:45:18;;;;;;;13.02;9.27;;;;;;;;;;5037780;28;20017;-76
2022/04/26 08:51:03;;;;;;;13.75;10.90;;;;;;;;;;4970007;28;20042;-76
2022/04/26 08:53:29;;;;;;;13.98;10.48;;;;;;;;;;4968276;28;20023;-77
2022/04/26 08:55:56;;;;;;;13.48;10.45;;;;;;;;;;5003440;28;20041;-75
2022/04/26 08:58:23;;;;;;;13.55;10.50;;;;;;;;;;5026807;28;20025;-75
2022/04/26 09:01:08;;;;;;;19.35;11.15;;;;;;;;;;5025261;28;20491;-78
2022/04/26 09:03:37;;;;;;;69.25;41.00;;;;;;;;;;5048779;28;20048;-77
2022/04/26 09:06:15;;;;;;;10.15;8.75;;;;;;;;;;5036893;28;20028;-78
2022/04/26 09:08:43;;;;;;;12.60;9.52;;;;;;;;;;5028109;28;20032;-74
2022/04/26 09:11:21;;;;;;;65.72;44.63;;;;;;;;;;5031195;28;20403;-79
2022/04/26 09:13:47;;;;;;;13.95;9.15;;;;;;;;;;5020300;28;20308;-75
2022/04/26 09:16:18;;;;;;;9.38;8.20;;;;;;;;;;5031186;28;20503;-77
2022/04/26 09:18:54;;;;;;;9.98;8.40;;;;;;;;;;5030010;28;20087;-77
2022/04/26 09:21:20;;;;;;;126.28;73.75;;;;;;;;;;5049794;28;20024;-78
2022/04/26 09:23:47;;;;;;;12.35;8.10;;;;;;;;;;5026788;28;20479;-76
2022/04/26 09:26:17;;;;;;;50.97;31.48;;;;;;;;;;5044113;28;20103;-76
2022/04/26 09:28:45;;;;;;;10.52;8.10;;;;;;;;;;5026425;28;20494;-76
2022/04/26 09:31:17;;;;;;;10.10;6.07;;;;;;;;;;5047542;28;20037;-77
2022/04/26 09:33:47;;;;;;;15.20;10.93;;;;;;;;;;5044498;28;20139;-76
2022/04/26 09:36:14;;;;;;;35.38;22.10;;;;;;;;;;5023555;28;20032;-75
2022/04/26 09:38:41;;;;;;;9.70;7.30;;;;;;;;;;5028709;28;20037;-76
2022/04/26 09:41:09;;;;;;;9.45;7.60;;;;;;;;;;5029643;28;20021;-78
2022/04/26 09:43:36;;;;;;;11.48;8.63;;;;;;;;;;5030186;28;20044;-79
2022/04/26 09:46:04;;;;;;;9.05;6.68;;;;;;;;;;5022864;28;20052;-76
2022/04/26 09:48:32;;;;;;;13.55;10.18;;;;;;;;;;5040643;28;20017;-77
2022/04/26 09:50:58;;;;;;;7.20;5.93;;;;;;;;;;5008348;28;20029;-76
2022/04/26 09:53:25;;;;;;;12.30;8.25;;;;;;;;;;5050101;28;20035;-76
2022/04/26 09:55:54;;;;;;;7.00;5.15;;;;;;;;;;5049377;28;20029;-76
2022/04/26 09:58:22;;;;;;;9.68;7.32;;;;;;;;;;5042029;28;20030;-77
2022/04/26 10:00:50;;;;;;;55.90;34.92;;;;;;;;;;5036511;28;20025;-75
2022/04/26 10:03:26;;;;;;;59.05;34.47;;;;;;;;;;5047381;28;20024;-76
2022/04/26 10:05:59;;;;;;;10.07;7.60;;;;;;;;;;5054705;28;20482;-75
2022/04/26 10:08:27;;;;;;;9.20;6.38;;;;;;;;;;5035461;28;20029;-77
2022/04/26 10:10:53;;;;;;;12.48;9.02;;;;;;;;;;5019493;28;20641;-77
2022/04/26 10:13:31;;;;;;;11.90;8.40;;;;;;;;;;5053843;28;20021;-75
2022/04/26 10:16:02;;;;;;;6.80;6.10;;;;;;;;;;5023975;28;20026;-77
2022/04/26 10:18:31;;;;;;;8.07;6.82;;;;;;;;;;5052019;28;20125;-80
2022/04/26 10:20:58;;;;;;;8.60;6.57;;;;;;;;;;5020082;28;20059;-78
2022/04/26 10:23:24;;;;;;;8.88;6.15;;;;;;;;;;5034452;28;20494;-79
2022/04/26 10:26:08;;;;;;;14.80;10.32;;;;;;;;;;5048263;28;20073;-79
2022/04/26 10:28:49;;;;;;;6.43;4.97;;;;;;;;;;5052521;28;20036;-79
2022/04/26 10:31:17;;;;;;;11.80;8.13;;;;;;;;;;5033612;28;20498;-77
2022/04/26 10:33:44;;;;;;;7.93;5.00;;;;;;;;;;5028223;28;20033;-77
2022/04/26 10:36:35;;;;;;;8.32;4.85;;;;;;;;;;5022774;28;20021;-79
2022/04/26 10:39:12;;;;;;;5.53;4.38;;;;;;;;;;5054853;28;20025;-78
2022/04/26 10:41:39;;;;;;;7.78;5.50;;;;;;;;;;5026508;28;20025;-77
2022/04/26 10:44:17;;;;;;;9.45;4.82;;;;;;;;;;5042129;28;20125;-78
2022/04/26 10:46:44;;;;;;;6.40;5.28;;;;;;;;;;5033171;28;20103;-77
2022/04/26 10:49:23;;;;;;;6.38;5.20;;;;;;;;;;5034433;28;20060;-77
2022/04/26 10:51:51;;;;;;;5.40;4.35;;;;;;;;;;5027599;28;20021;-77
2022/04/26 10:54:37;;;;;;;8.77;4.50;;;;;;;;;;5023651;28;20021;-75
2022/04/26 10:57:03;;;;;;;8.27;6.00;;;;;;;;;;5024699;28;20020;-73
2022/04/26 10:59:29;;;;;;;10.00;6.90;;;;;;;;;;5045759;28;20088;-77
2022/04/26 11:01:55;;;;;;;15.65;9.25;;;;;;;;;;5027424;28;20072;-76
2022/04/26 11:04:22;;;;;;;5.28;4.28;;;;;;;;;;5037600;28;20032;-74
2022/04/26 11:06:48;;;;;;;5.60;3.97;;;;;;;;;;5049279;28;20031;-77
2022/04/26 11:09:15;;;;;;;6.47;4.28;;;;;;;;;;5020870;28;20146;-75
2022/04/26 11:11:54;;;;;;;15.50;9.68;;;;;;;;;;5025049;28;20120;-74
2022/04/26 11:14:24;;;;;;;7.03;4.47;;;;;;;;;;5030507;28;20017;-78
2022/04/26 11:17:08;;;;;;;7.38;5.20;;;;;;;;;;5036367;28;20087;-75
2022/04/26 11:19:36;;;;;;;4.72;3.85;;;;;;;;;;5043899;28;20053;-76
2022/04/26 11:22:05;;;;;;;23.58;11.38;;;;;;;;;;5045511;28;20025;-76
2022/04/26 11:30:02;;;;;;;6.82;3.90;;;;;;;;;;5040915;28;20037;-76
2022/04/26 11:32:31;;;;;;;5.65;4.35;;;;;;;;;;5049114;28;20044;-78
2022/04/26 11:34:58;;;;;;;24.27;15.52;;;;;;;;;;5004080;28;20603;-75
2022/04/26 11:37:24;;;;;;;16.83;10.32;;;;;;;;;;5044940;28;20022;-74
2022/04/26 11:39:50;;;;;;;17.38;10.82;;;;;;;;;;5029261;28;20040;-76
2022/04/26 11:42:16;;;;;;;3.72;3.40;;;;;;;;;;5023660;28;20030;-78
2022/04/26 11:45:02;;;;;;;20.35;12.15;;;;;;;;;;5033502;28;20127;-78
2022/04/26 11:47:37;;;;;;;23.42;13.43;;;;;;;;;;5039981;28;20026;-78
2022/04/26 11:50:09;;;;;;;4.15;3.67;;;;;;;;;;5032651;28;20478;-77
2022/04/26 11:52:35;;;;;;;6.55;4.28;;;;;;;;;;5043001;28;20017;-77
2022/04/26 11:55:01;;;;;;;4.22;3.40;;;;;;;;;;5031909;28;20095;-77
2022/04/26 11:57:29;;;;;;;4.03;3.33;;;;;;;;;;5028821;28;20029;-79
2022/04/26 11:59:55;;;;;;;16.88;10.05;;;;;;;;;;5032141;28;20032;-80
2022/04/26 12:02:21;;;;;;;14.93;7.65;;;;;;;;;;5035739;28;20115;-81
2022/04/26 12:04:47;;;;;;;7.35;4.75;;;;;;;;;;5019758;28;20206;-79
2022/04/26 12:07:13;;;;;;;5.88;3.17;;;;;;;;;;5036165;28;20583;-76
2022/04/26 12:09:42;;;;;;;11.63;3.33;;;;;;;;;;5026584;28;20035;-77
2022/04/26 12:12:10;;;;;;;4.07;3.55;;;;;;;;;;5056540;28;20025;-79
2022/04/26 12:14:38;;;;;;;4.53;3.10;;;;;;;;;;5030711;28;20033;-78
2022/04/26 12:17:16;;;;;;;6.90;5.07;;;;;;;;;;5035037;28;20013;-77
2022/04/26 12:19:44;;;;;;;25.77;14.80;;;;;;;;;;5007923;28;20466;-76
2022/04/26 12:22:12;;;;;;;26.45;16.00;;;;;;;;;;5039492;28;20477;-81
2022/04/26 12:24:49;;;;;;;26.40;14.35;;;;;;;;;;5049667;28;20112;-77
2022/04/26 12:27:19;;;;;;;28.17;17.35;;;;;;;;;;5019778;28;20044;-74
2022/04/26 12:29:47;;;;;;;6.05;4.28;;;;;;;;;;5006336;28;20506;-77
2022/04/26 12:32:14;;;;;;;26.10;15.95;;;;;;;;;;5046316;28;20538;-77
2022/04/26 12:34:47;;;;;;;21.25;12.02;;;;;;;;;;5038430;28;20114;-77
2022/04/26 12:37:34;;;;;;;4.55;3.15;;;;;;;;;;5034147;28;20022;-77
2022/04/26 12:40:11;;;;;;;3.85;3.38;;;;;;;;;;5002055;28;20049;-78
2022/04/26 12:42:39;;;;;;;12.10;6.95;;;;;;;;;;5034394;28;20103;-77
2022/04/26 12:45:11;;;;;;;3.85;3.33;;;;;;;;;;5014667;28;20159;-74
2022/04/26 12:50:28;;;;;;;10.32;6.57;;;;;;;;;;5049847;22;20084;-71
2022/04/26 12:53:04;;;;;;;21.75;13.02;;;;;;;;;;5047310;28;20017;-69
2022/04/26 12:55:32;;;;;;;4.38;3.15;;;;;;;;;;5039629;28;20025;-73
2022/04/26 12:58:27;;;;;;;3.95;3.50;;;;;;;;;;5042944;28;20125;-72
2022/04/26 13:00:53;;;;;;;4.18;2.83;;;;;;;;;;4995931;28;20041;-73
2022/04/26 13:03:21;;;;;;;4.05;3.38;;;;;;;;;;5009750;28;20372;-72
2022/04/26 13:05:51;;;;;;;5.63;3.15;;;;;;;;;;5009183;28;20068;-71
2022/04/26 13:08:19;;;;;;;4.13;3.53;;;;;;;;;;5023637;28;20033;-73
2022/04/26 13:10:47;;;;;;;4.53;3.00;;;;;;;;;;5012734;28;20069;-75
2022/04/26 13:13:14;;;;;;;4.07;3.33;;;;;;;;;;5009390;28;20046;-73
2022/04/26 13:15:44;;;;;;;4.47;3.17;;;;;;;;;;5021322;28;20026;-73
2022/04/26 13:18:11;;;;;;;4.55;2.85;;;;;;;;;;5022350;28;20057;-72
2022/04/26 13:20:37;;;;;;;3.70;2.92;;;;;;;;;;5013715;28;20022;-72
2022/04/26 13:23:03;;;;;;;3.67;3.05;;;;;;;;;;5026095;28;20055;-74
2022/04/26 13:25:30;;;;;;;7.47;3.22;;;;;;;;;;5019186;28;20037;-71
2022/04/26 13:27:56;;;;;;;3.53;3.13;;;;;;;;;;5016950;28;20034;-74
2022/04/26 13:30:23;;;;;;;4.28;3.00;;;;;;;;;;5024814;28;20028;-73
2022/04/26 13:32:49;;;;;;;8.73;3.95;;;;;;;;;;5013035;28;20519;-74
2022/04/26 13:35:15;;;;;;;4.53;3.38;;;;;;;;;;5022717;28;20484;-68
2022/04/26 13:37:43;;;;;;;58.83;33.78;;;;;;;;;;5017682;28;20083;-68
2022/04/26 13:40:10;;;;;;;4.85;4.07;;;;;;;;;;5015165;28;20018;-68
2022/04/26 13:42:36;;;;;;;12.48;7.72;;;;;;;;;;5030882;28;20033;-69
2022/04/26 13:45:03;;;;;;;4.80;3.63;;;;;;;;;;5017430;28;20025;-68
2022/04/26 13:47:29;;;;;;;32.03;19.67;;;;;;;;;;5025013;28;20026;-69
2022/04/26 13:49:55;;;;;;;56.53;34.03;;;;;;;;;;5024135;28;20041;-68
2022/04/26 13:52:22;;;;;;;16.98;10.63;;;;;;;;;;5017616;28;20029;-68
2022/04/26 13:54:48;;;;;;;8.07;5.47;;;;;;;;;;5029697;28;20021;-68
2022/04/26 13:57:15;;;;;;;4.70;3.40;;;;;;;;;;5019614;28;20535;-68
2022/04/26 13:59:41;;;;;;;9.15;4.88;;;;;;;;;;5022414;28;20034;-72
2022/04/26 14:02:08;;;;;;;5.43;3.60;;;;;;;;;;5026092;28;20030;-69
2022/04/26 14:04:34;;;;;;;7.72;4.70;;;;;;;;;;5017177;28;20200;-69
2022/04/26 14:07:01;;;;;;;66.90;46.35;;;;;;;;;;5029143;28;20030;-68
2022/04/26 14:09:27;;;;;;;21.42;13.35;;;;;;;;;;5020303;28;20419;-68
2022/04/26 14:11:55;;;;;;;19.65;13.75;;;;;;;;;;5022376;28;20022;-67
2022/04/26 14:22:36;;;;;;;11.55;5.65;;;;;;;;;;5029696;28;20445;-69
2022/04/26 14:25:04;;;;;;;25.63;14.10;;;;;;;;;;5016826;28;20494;-69
2022/04/26 14:27:31;;;;;;;10.63;6.45;;;;;;;;;;5024090;28;20189;-68
2022/04/26 14:29:57;;;;;;;7.38;5.28;;;;;;;;;;5023905;28;20052;-68
2022/04/26 14:32:23;;;;;;;3.28;2.97;;;;;;;;;;5017299;28;20034;-69
2022/04/26 14:34:49;;;;;;;9.77;5.65;;;;;;;;;;5028246;28;20026;-68
2022/04/26 14:37:16;;;;;;;5.88;3.65;;;;;;;;;;5018476;28;20061;-68
2022/04/26 14:39:42;;;;;;;21.77;12.68;;;;;;;;;;5013924;28;20495;-68
2022/04/26 14:42:08;;;;;;;11.07;7.40;;;;;;;;;;5024985;28;20065;-69
2022/04/26 14:44:35;;;;;;;10.88;7.25;;;;;;;;;;5014760;28;20532;-69
2022/04/26 14:47:06;;;;;;;5.32;4.18;;;;;;;;;;5026512;28;20030;-68
2022/04/26 14:49:32;;;;;;;;;;;;;;;;;;5008996;28;20040;-67
2022/04/26 14:51:58;;;;;;;27.27;11.77;;;;;;;;;;5019666;28;19917;-67
2022/04/26 14:54:24;;;;;;;24.40;14.00;;;;;;;;;;5026598;28;20029;-68
2022/04/26 14:56:50;;;;;;;12.32;5.00;;;;;;;;;;5016156;28;20079;-67
2022/04/26 14:59:17;;;;;;;14.15;8.57;;;;;;;;;;5024281;28;20024;-67
2022/04/26 15:01:48;;;;;;;4.95;3.83;;;;;;;;;;5021559;28;20025;-66
2022/04/26 15:04:15;;;;;;;16.77;9.95;;;;;;;;;;5018478;28;20028;-67
2022/04/26 15:06:41;;;;;;;6.65;4.53;;;;;;;;;;5027632;28;20488;-68
2022/04/26 15:16:37;;;;;;;6.53;3.63;;;;;;;;;;5021718;28;20092;-66
2022/04/26 15:17:23;;;;;;;5.93;3.47;;;;;;;;;;5024562;28;20037;-72
2022/04/26 15:19:50;;;;;;;3.88;3.08;;;;;;;;;;5023497;28;20030;-73
2022/04/26 15:22:18;;;;;;;4.88;3.30;;;;;;;;;;5018386;28;20384;-73
2022/04/26 15:24:46;;;;;;;4.75;3.60;;;;;;;;;;5026702;28;20120;-73
2022/04/26 15:27:12;;;;;;;3.80;2.95;;;;;;;;;;5015930;28;20029;-73
2022/04/26 15:29:41;;;;;;;3.88;3.42;;;;;;;;;;5020765;28;20025;-73
2022/04/26 15:32:07;;;;;;;4.88;3.22;;;;;;;;;;5023602;28;20076;-72
2022/04/26 15:34:33;;;;;;;4.82;3.28;;;;;;;;;;5013770;28;20113;-74
2022/04/26 15:36:59;;;;;;;4.20;2.85;;;;;;;;;;5024499;28;20021;-69
2022/04/26 15:39:28;;;;;;;4.82;3.40;;;;;;;;;;5012944;28;20029;-74
2022/04/26 15:41:54;;;;;;;4.78;3.00;;;;;;;;;;5010806;28;20037;-74
2022/04/26 15:44:20;;;;;;;3.92;3.03;;;;;;;;;;5012006;28;20034;-72
2022/04/26 15:46:48;;;;;;;3.85;3.13;;;;;;;;;;5013473;28;20139;-73
2022/04/26 15:49:14;;;;;;;4.28;2.63;;;;;;;;;;5016439;28;20159;-74
2022/04/26 15:51:44;;;;;;;3.58;2.97;;;;;;;;;;5019640;28;20034;-73
2022/04/26 15:54:10;;;;;;;4.05;3.13;;;;;;;;;;5024652;28;20045;-72
2022/04/26 15:56:36;;;;;;;3.97;3.13;;;;;;;;;;5015002;28;20026;-73
2022/04/26 15:59:02;;;;;;;3.55;2.67;;;;;;;;;;5025385;28;20025;-74
2022/04/26 16:01:28;;;;;;;3.80;2.97;;;;;;;;;;5018824;28;20029;-73
2022/04/26 16:03:54;;;;;;;3.70;3.03;;;;;;;;;;5018909;28;20454;-72
2022/04/26 16:06:20;;;;;;;11.50;7.32;;;;;;;;;;5026977;28;20167;-73
2022/04/26 16:08:46;;;;;;;3.33;3.03;;;;;;;;;;5014412;28;20096;-73
2022/04/26 16:22:11;;;;;;;3.97;2.95;;;;;;;;;;5025685;28;20032;-73
2022/04/26 16:24:40;;;;;;;5.35;3.75;;;;;;;;;;5014235;28;20499;-73
2022/04/26 16:27:07;;;;;;;3.53;2.58;;;;;;;;;;5024191;28;20396;-71
2022/04/26 16:29:33;;;;;;;9.07;6.75;;;;;;;;;;5020318;28;20375;-68
2022/04/26 16:31:59;;;;;;;9.98;6.60;;;;;;;;;;5019588;28;20029;-67
2022/04/26 16:34:25;;;;;;;12.43;7.78;;;;;;;;;;5027224;28;20026;-68
2022/04/26 16:36:51;;;;;;;12.18;7.65;;;;;;;;;;5014137;28;20102;-70
2022/04/26 16:39:18;;;;;;;13.35;8.45;;;;;;;;;;5011164;28;20052;-67
2022/04/26 16:41:44;;;;;;;15.32;8.63;;;;;;;;;;5019580;28;20025;-68
2022/04/26 16:44:10;;;;;;;10.90;6.63;;;;;;;;;;5014298;28;20030;-69
2022/04/26 16:46:37;;;;;;;6.43;4.22;;;;;;;;;;5018848;28;20395;-69
2022/04/26 16:49:05;;;;;;;11.13;5.70;;;;;;;;;;4997689;28;20044;-67
2022/04/26 16:51:34;;;;;;;8.65;5.50;;;;;;;;;;5019794;28;20037;-68
2022/04/26 16:54:00;;;;;;;3.75;2.80;;;;;;;;;;5021602;28;20067;-66
2022/04/26 16:56:26;;;;;;;7.55;3.80;;;;;;;;;;5012156;28;20033;-67
2022/04/26 16:58:52;;;;;;;9.80;6.72;;;;;;;;;;5010992;28;20014;-67
2022/04/26 17:01:18;;;;;;;7.93;3.70;;;;;;;;;;5023379;28;20013;-68
2022/04/26 17:03:44;;;;;;;4.47;3.00;;;;;;;;;;5027628;28;20050;-68
2022/04/26 17:06:11;;;;;;;5.93;3.70;;;;;;;;;;5023441;28;20030;-68
2022/04/26 17:08:37;;;;;;;12.00;7.97;;;;;;;;;;5027876;28;20431;-68
2022/04/26 17:13:48;;;;;;;5.95;4.68;;;;;;;;;;5020127;28;20060;-68
2022/04/26 17:16:14;;;;;;;8.45;3.58;;;;;;;;;;5016774;28;20022;-67
2022/04/26 17:18:41;;;;;;;8.35;5.47;;;;;;;;;;5028758;28;20702;-68
2022/04/26 17:21:08;;;;;;;9.32;6.13;;;;;;;;;;5018450;28;20025;-68
2022/04/26 17:23:34;;;;;;;5.95;4.60;;;;;;;;;;5024471;28;20399;-67
2022/04/26 17:26:00;;;;;;;14.43;6.03;;;;;;;;;;5014466;28;20053;-68
2022/04/26 17:28:26;;;;;;;11.70;7.47;;;;;;;;;;5015583;28;20029;-68
2022/04/26 17:30:52;;;;;;;28.77;14.63;;;;;;;;;;5029622;28;20030;-69
2022/04/26 17:33:18;;;;;;;17.92;10.88;;;;;;;;;;5020755;28;20075;-69
2022/04/26 17:35:44;;;;;;;11.70;7.53;;;;;;;;;;5022559;28;20025;-68
2022/04/26 17:38:10;;;;;;;20.33;12.68;;;;;;;;;;5027485;28;20450;-68
2022/04/26 17:40:36;;;;;;;6.35;4.90;;;;;;;;;;5017359;28;20488;-67
2022/04/26 17:43:03;;;;;;;7.40;5.43;;;;;;;;;;5028361;28;20029;-65
2022/04/26 17:45:33;;;;;;;9.38;5.45;;;;;;;;;;5021069;28;20551;-66
2022/04/26 17:47:59;;;;;;;12.55;6.22;;;;;;;;;;5014246;28;20080;-73
2022/04/26 17:50:25;;;;;;;7.35;4.30;;;;;;;;;;5028028;28;20035;-73
2022/04/26 17:58:20;;;;;;;5.10;3.60;;;;;;;;;;5017876;28;20045;-72
2022/04/26 18:00:46;;;;;;;4.70;4.00;;;;;;;;;;5027730;28;20450;-72
2022/04/26 18:03:12;;;;;;;4.68;3.38;;;;;;;;;;5014477;28;20109;-73
2022/04/26 18:05:40;;;;;;;8.20;5.45;;;;;;;;;;5012590;28;20040;-73
2022/04/26 18:08:06;;;;;;;7.88;5.28;;;;;;;;;;5025634;28;20109;-72
2022/04/26 18:10:33;;;;;;;9.55;5.13;;;;;;;;;;5016076;28;20026;-72
2022/04/26 18:12:59;;;;;;;5.65;3.60;;;;;;;;;;5028745;28;20123;-72
2022/04/26 18:15:26;;;;;;;7.63;4.93;;;;;;;;;;5033487;28;20017;-71
2022/04/26 18:17:52;;;;;;;4.75;4.05;;;;;;;;;;5032276;28;20101;-75
2022/04/26 18:20:20;;;;;;;5.78;3.67;;;;;;;;;;5031184;28;20100;-73
2022/04/26 18:22:46;;;;;;;5.70;4.45;;;;;;;;;;5015721;28;20036;-69
2022/04/26 18:25:12;;;;;;;5.85;5.03;;;;;;;;;;5025653;28;20022;-73
2022/04/26 18:27:39;;;;;;;7.43;5.18;;;;;;;;;;5017839;28;20040;-74
2022/04/26 18:30:05;;;;;;;6.63;4.63;;;;;;;;;;5017944;28;20025;-72
2022/04/26 18:32:32;;;;;;;7.85;5.43;;;;;;;;;;5027342;28;20026;-72
2022/04/26 18:34:58;;;;;;;7.85;4.78;;;;;;;;;;5028019;28;20021;-72
2022/04/26 18:37:24;;;;;;;7.60;5.47;;;;;;;;;;5030634;28;20091;-73
2022/04/26 18:39:50;;;;;;;6.88;4.60;;;;;;;;;;5010685;28;20026;-73
2022/04/26 18:42:16;;;;;;;6.20;3.85;;;;;;;;;;5031125;28;20112;-72
2022/04/26 18:44:42;;;;;;;6.18;4.25;;;;;;;;;;5014107;28;20064;-72
2022/04/26 18:47:08;;;;;;;7.22;4.68;;;;;;;;;;5024121;28;20032;-73
2022/04/26 18:49:35;;;;;;;6.22;4.68;;;;;;;;;;5048655;22;20022;-73
2022/04/26 18:52:01;;;;;;;9.60;4.95;;;;;;;;;;4996010;28;20522;-74
2022/04/26 18:54:28;;;;;;;4.97;4.40;;;;;;;;;;5010747;28;20025;-76
2022/04/26 18:56:54;;;;;;;8.35;5.88;;;;;;;;;;4998059;28;20025;-73
2022/04/26 18:59:21;;;;;;;5.20;4.30;;;;;;;;;;5007148;28;20021;-75
2022/04/26 19:01:47;;;;;;;5.78;4.32;;;;;;;;;;4996744;28;20048;-73
2022/04/26 19:04:14;;;;;;;6.28;4.85;;;;;;;;;;5026392;28;20514;-74